sensor_id;sensor_type;location;lat;lon;timestamp;P1;durP1;ratioP1;P2;durP2;ratioP2
41333;SDS011;27078;46.428;6.256;2023-07-29T00:00:35;9.18;;;4.65;;
41333;SDS011;27078;46.428;6.256;2023-07-29T00:03:00;6.45;;;4.47;;
41333;SDS011;27078;46.428;6.256;2023-07-29T00:05:26;8.48;;;4.90;;
41333;SDS011;27078;46.428;6.256;2023-07-29T00:07:51;8.55;;;4.75;;
41333;SDS011;27078;46.428;6.256;2023-07-29T00:10:17;7.43;;;4.65;;
41333;SDS011;27078;46.428;6.256;2023-07-29T00:12:42;8.05;;;4.85;;
41333;SDS011;27078;46.428;6.256;2023-07-29T00:15:08;7.65;;;4.82;;
41333;SDS011;27078;46.428;6.256;2023-07-29T00:17:33;6.95;;;4.97;;
41333;SDS011;27078;46.428;6.256;2023-07-29T00:19:59;8.85;;;5.00;;
41333;SDS011;27078;46.428;6.256;2023-07-29T00:22:24;9.65;;;5.57;;
41333;SDS011;27078;46.428;6.256;2023-07-29T00:24:52;8.15;;;5.43;;
41333;SDS011;27078;46.428;6.256;2023-07-29T00:27:20;8.13;;;5.30;;
41333;SDS011;27078;46.428;6.256;2023-07-29T00:29:45;8.00;;;5.47;;
41333;SDS011;27078;46.428;6.256;2023-07-29T00:32:10;10.23;;;5.47;;
41333;SDS011;27078;46.428;6.256;2023-07-29T00:34:36;9.07;;;4.95;;
41333;SDS011;27078;46.428;6.256;2023-07-29T00:37:01;7.70;;;4.70;;
41333;SDS011;27078;46.428;6.256;2023-07-29T00:39:26;6.30;;;3.70;;
41333;SDS011;27078;46.428;6.256;2023-07-29T00:41:51;5.40;;;4.28;;
41333;SDS011;27078;46.428;6.256;2023-07-29T00:44:17;6.20;;;4.22;;
41333;SDS011;27078;46.428;6.256;2023-07-29T00:46:42;7.80;;;5.25;;
41333;SDS011;27078;46.428;6.256;2023-07-29T00:49:10;8.25;;;5.22;;
41333;SDS011;27078;46.428;6.256;2023-07-29T00:51:36;7.72;;;5.25;;
41333;SDS011;27078;46.428;6.256;2023-07-29T00:54:01;9.38;;;5.93;;
41333;SDS011;27078;46.428;6.256;2023-07-29T00:56:27;8.07;;;6.10;;
41333;SDS011;27078;46.428;6.256;2023-07-29T00:58:52;8.15;;;5.85;;
41333;SDS011;27078;46.428;6.256;2023-07-29T01:01:23;8.50;;;5.80;;
41333;SDS011;27078;46.428;6.256;2023-07-29T01:03:49;7.32;;;5.70;;
41333;SDS011;27078;46.428;6.256;2023-07-29T01:09:02;10.48;;;5.88;;
41333;SDS011;27078;46.428;6.256;2023-07-29T01:11:52;9.02;;;5.82;;
41333;SDS011;27078;46.428;6.256;2023-07-29T01:14:34;6.40;;;5.43;;
41333;SDS011;27078;46.428;6.256;2023-07-29T01:17:13;9.48;;;5.40;;
41333;SDS011;27078;46.428;6.256;2023-07-29T01:22:18;8.07;;;5.63;;
41333;SDS011;27078;46.428;6.256;2023-07-29T01:24:45;9.88;;;6.65;;
41333;SDS011;27078;46.428;6.256;2023-07-29T01:27:11;9.40;;;6.53;;
41333;SDS011;27078;46.428;6.256;2023-07-29T01:29:36;9.98;;;7.07;;
41333;SDS011;27078;46.428;6.256;2023-07-29T01:32:04;8.55;;;6.32;;
41333;SDS011;27078;46.428;6.256;2023-07-29T01:34:39;8.43;;;6.40;;
41333;SDS011;27078;46.428;6.256;2023-07-29T01:37:11;8.80;;;6.38;;
41333;SDS011;27078;46.428;6.256;2023-07-29T01:39:44;8.60;;;6.30;;
41333;SDS011;27078;46.428;6.256;2023-07-29T01:42:11;8.60;;;6.18;;
41333;SDS011;27078;46.428;6.256;2023-07-29T01:44:36;7.72;;;5.50;;
41333;SDS011;27078;46.428;6.256;2023-07-29T01:47:02;8.13;;;5.43;;
41333;SDS011;27078;46.428;6.256;2023-07-29T01:49:27;6.28;;;4.68;;
41333;SDS011;27078;46.428;6.256;2023-07-29T01:51:53;6.15;;;4.15;;
41333;SDS011;27078;46.428;6.256;2023-07-29T01:54:18;6.75;;;5.05;;
41333;SDS011;27078;46.428;6.256;2023-07-29T01:56:43;5.72;;;4.00;;
41333;SDS011;27078;46.428;6.256;2023-07-29T01:59:09;6.18;;;5.10;;
41333;SDS011;27078;46.428;6.256;2023-07-29T02:01:34;6.57;;;5.30;;
41333;SDS011;27078;46.428;6.256;2023-07-29T02:03:59;8.15;;;5.32;;
41333;SDS011;27078;46.428;6.256;2023-07-29T02:06:25;6.70;;;5.00;;
41333;SDS011;27078;46.428;6.256;2023-07-29T02:08:52;7.22;;;5.28;;
41333;SDS011;27078;46.428;6.256;2023-07-29T02:11:19;6.97;;;5.38;;
41333;SDS011;27078;46.428;6.256;2023-07-29T02:13:45;7.78;;;5.72;;
41333;SDS011;27078;46.428;6.256;2023-07-29T02:16:10;7.28;;;5.72;;
41333;SDS011;27078;46.428;6.256;2023-07-29T02:18:36;7.38;;;5.57;;
41333;SDS011;27078;46.428;6.256;2023-07-29T02:21:02;8.05;;;5.50;;
41333;SDS011;27078;46.428;6.256;2023-07-29T02:23:28;7.10;;;5.65;;
41333;SDS011;27078;46.428;6.256;2023-07-29T02:25:53;5.65;;;4.18;;
41333;SDS011;27078;46.428;6.256;2023-07-29T02:28:18;4.55;;;3.75;;
41333;SDS011;27078;46.428;6.256;2023-07-29T02:30:44;5.95;;;3.97;;
41333;SDS011;27078;46.428;6.256;2023-07-29T02:33:10;6.35;;;4.93;;
41333;SDS011;27078;46.428;6.256;2023-07-29T02:35:35;8.95;;;5.35;;
41333;SDS011;27078;46.428;6.256;2023-07-29T02:38:00;6.72;;;5.25;;
41333;SDS011;27078;46.428;6.256;2023-07-29T02:40:26;6.55;;;5.28;;
41333;SDS011;27078;46.428;6.256;2023-07-29T02:42:52;5.78;;;4.85;;
41333;SDS011;27078;46.428;6.256;2023-07-29T02:45:17;7.65;;;5.70;;
41333;SDS011;27078;46.428;6.256;2023-07-29T02:47:42;7.65;;;5.43;;
41333;SDS011;27078;46.428;6.256;2023-07-29T02:50:08;8.02;;;5.47;;
41333;SDS011;27078;46.428;6.256;2023-07-29T02:52:34;6.95;;;5.32;;
41333;SDS011;27078;46.428;6.256;2023-07-29T02:54:59;8.40;;;5.78;;
41333;SDS011;27078;46.428;6.256;2023-07-29T02:57:24;6.72;;;5.40;;
41333;SDS011;27078;46.428;6.256;2023-07-29T02:59:50;7.10;;;5.75;;
41333;SDS011;27078;46.428;6.256;2023-07-29T03:02:15;8.52;;;5.70;;
41333;SDS011;27078;46.428;6.256;2023-07-29T03:04:41;9.20;;;5.40;;
41333;SDS011;27078;46.428;6.256;2023-07-29T03:07:06;8.43;;;5.13;;
41333;SDS011;27078;46.428;6.256;2023-07-29T03:09:32;7.38;;;5.20;;
41333;SDS011;27078;46.428;6.256;2023-07-29T03:11:58;7.75;;;5.43;;
41333;SDS011;27078;46.428;6.256;2023-07-29T03:14:24;6.68;;;5.28;;
41333;SDS011;27078;46.428;6.256;2023-07-29T03:16:49;6.22;;;4.60;;
41333;SDS011;27078;46.428;6.256;2023-07-29T03:19:15;5.25;;;4.25;;
41333;SDS011;27078;46.428;6.256;2023-07-29T03:21:40;7.15;;;4.40;;
41333;SDS011;27078;46.428;6.256;2023-07-29T03:24:05;6.43;;;5.00;;
41333;SDS011;27078;46.428;6.256;2023-07-29T03:26:31;5.55;;;4.63;;
41333;SDS011;27078;46.428;6.256;2023-07-29T03:28:57;5.43;;;4.57;;
41333;SDS011;27078;46.428;6.256;2023-07-29T03:31:22;6.40;;;4.90;;
41333;SDS011;27078;46.428;6.256;2023-07-29T03:33:47;6.38;;;4.78;;
41333;SDS011;27078;46.428;6.256;2023-07-29T03:36:13;5.55;;;4.43;;
41333;SDS011;27078;46.428;6.256;2023-07-29T03:38:39;7.57;;;4.95;;
41333;SDS011;27078;46.428;6.256;2023-07-29T03:41:06;6.47;;;4.72;;
41333;SDS011;27078;46.428;6.256;2023-07-29T03:43:33;6.82;;;4.75;;
41333;SDS011;27078;46.428;6.256;2023-07-29T03:45:59;7.00;;;4.85;;
41333;SDS011;27078;46.428;6.256;2023-07-29T03:48:25;7.20;;;4.38;;
41333;SDS011;27078;46.428;6.256;2023-07-29T03:50:50;6.90;;;4.63;;
41333;SDS011;27078;46.428;6.256;2023-07-29T03:53:15;6.50;;;4.13;;
41333;SDS011;27078;46.428;6.256;2023-07-29T03:55:42;5.15;;;3.83;;
41333;SDS011;27078;46.428;6.256;2023-07-29T03:58:07;7.55;;;4.10;;
41333;SDS011;27078;46.428;6.256;2023-07-29T04:00:32;7.50;;;4.57;;
41333;SDS011;27078;46.428;6.256;2023-07-29T04:02:58;7.30;;;4.70;;
41333;SDS011;27078;46.428;6.256;2023-07-29T04:05:23;6.85;;;4.60;;
41333;SDS011;27078;46.428;6.256;2023-07-29T04:07:49;7.72;;;4.75;;
41333;SDS011;27078;46.428;6.256;2023-07-29T04:10:14;6.13;;;4.57;;
41333;SDS011;27078;46.428;6.256;2023-07-29T04:12:41;6.32;;;4.30;;
41333;SDS011;27078;46.428;6.256;2023-07-29T04:15:07;6.82;;;4.70;;
41333;SDS011;27078;46.428;6.256;2023-07-29T04:17:34;7.43;;;4.10;;
41333;SDS011;27078;46.428;6.256;2023-07-29T04:20:00;6.15;;;3.90;;
41333;SDS011;27078;46.428;6.256;2023-07-29T04:22:25;6.78;;;4.28;;
41333;SDS011;27078;46.428;6.256;2023-07-29T04:24:50;5.63;;;4.60;;
41333;SDS011;27078;46.428;6.256;2023-07-29T04:27:16;7.32;;;4.38;;
41333;SDS011;27078;46.428;6.256;2023-07-29T04:29:41;9.02;;;4.53;;
41333;SDS011;27078;46.428;6.256;2023-07-29T04:32:06;6.95;;;4.78;;
41333;SDS011;27078;46.428;6.256;2023-07-29T04:34:32;7.90;;;4.80;;
41333;SDS011;27078;46.428;6.256;2023-07-29T04:36:57;5.47;;;4.47;;
41333;SDS011;27078;46.428;6.256;2023-07-29T04:39:23;6.40;;;4.10;;
41333;SDS011;27078;46.428;6.256;2023-07-29T04:41:48;6.68;;;4.07;;
41333;SDS011;27078;46.428;6.256;2023-07-29T04:44:13;5.18;;;3.40;;
41333;SDS011;27078;46.428;6.256;2023-07-29T04:46:39;5.13;;;3.60;;
41333;SDS011;27078;46.428;6.256;2023-07-29T04:49:04;5.10;;;3.63;;
41333;SDS011;27078;46.428;6.256;2023-07-29T04:51:30;5.35;;;4.00;;
41333;SDS011;27078;46.428;6.256;2023-07-29T04:53:56;5.85;;;3.92;;
41333;SDS011;27078;46.428;6.256;2023-07-29T04:56:22;5.30;;;3.85;;
41333;SDS011;27078;46.428;6.256;2023-07-29T04:58:47;8.20;;;4.18;;
41333;SDS011;27078;46.428;6.256;2023-07-29T05:01:13;8.13;;;4.20;;
41333;SDS011;27078;46.428;6.256;2023-07-29T05:03:38;9.35;;;4.47;;
41333;SDS011;27078;46.428;6.256;2023-07-29T05:06:04;5.85;;;4.47;;
41333;SDS011;27078;46.428;6.256;2023-07-29T05:08:30;8.25;;;4.57;;
41333;SDS011;27078;46.428;6.256;2023-07-29T05:10:55;4.82;;;3.70;;
41333;SDS011;27078;46.428;6.256;2023-07-29T05:13:21;5.00;;;4.00;;
41333;SDS011;27078;46.428;6.256;2023-07-29T05:15:47;4.88;;;3.53;;
41333;SDS011;27078;46.428;6.256;2023-07-29T05:18:14;4.15;;;3.40;;
41333;SDS011;27078;46.428;6.256;2023-07-29T05:20:39;4.70;;;3.63;;
41333;SDS011;27078;46.428;6.256;2023-07-29T05:23:05;7.20;;;4.40;;
41333;SDS011;27078;46.428;6.256;2023-07-29T05:25:30;5.15;;;4.03;;
41333;SDS011;27078;46.428;6.256;2023-07-29T05:27:55;5.80;;;4.28;;
41333;SDS011;27078;46.428;6.256;2023-07-29T05:30:23;6.10;;;3.97;;
41333;SDS011;27078;46.428;6.256;2023-07-29T05:32:48;6.78;;;4.20;;
41333;SDS011;27078;46.428;6.256;2023-07-29T05:35:14;3.85;;;3.08;;
41333;SDS011;27078;46.428;6.256;2023-07-29T05:37:39;5.75;;;4.28;;
41333;SDS011;27078;46.428;6.256;2023-07-29T05:40:06;3.75;;;3.28;;
41333;SDS011;27078;46.428;6.256;2023-07-29T05:42:32;5.07;;;3.53;;
41333;SDS011;27078;46.428;6.256;2023-07-29T05:44:58;4.82;;;3.58;;
41333;SDS011;27078;46.428;6.256;2023-07-29T05:47:23;4.55;;;3.13;;
41333;SDS011;27078;46.428;6.256;2023-07-29T05:49:49;4.15;;;2.90;;
41333;SDS011;27078;46.428;6.256;2023-07-29T05:52:14;5.10;;;3.28;;
41333;SDS011;27078;46.428;6.256;2023-07-29T05:54:40;3.95;;;2.88;;
41333;SDS011;27078;46.428;6.256;2023-07-29T05:57:05;6.38;;;3.40;;
41333;SDS011;27078;46.428;6.256;2023-07-29T05:59:31;5.07;;;3.30;;
41333;SDS011;27078;46.428;6.256;2023-07-29T06:01:56;5.53;;;3.03;;
41333;SDS011;27078;46.428;6.256;2023-07-29T06:04:21;4.65;;;3.20;;
41333;SDS011;27078;46.428;6.256;2023-07-29T06:06:47;5.28;;;3.47;;
41333;SDS011;27078;46.428;6.256;2023-07-29T06:09:12;4.55;;;2.97;;
41333;SDS011;27078;46.428;6.256;2023-07-29T06:11:37;5.93;;;3.60;;
41333;SDS011;27078;46.428;6.256;2023-07-29T06:14:03;5.00;;;3.50;;
41333;SDS011;27078;46.428;6.256;2023-07-29T06:16:28;4.93;;;3.30;;
41333;SDS011;27078;46.428;6.256;2023-07-29T06:18:53;4.15;;;3.10;;
41333;SDS011;27078;46.428;6.256;2023-07-29T06:21:19;4.60;;;3.15;;
41333;SDS011;27078;46.428;6.256;2023-07-29T06:23:45;4.60;;;2.90;;
41333;SDS011;27078;46.428;6.256;2023-07-29T06:26:11;5.13;;;3.25;;
41333;SDS011;27078;46.428;6.256;2023-07-29T06:28:37;4.97;;;3.15;;
41333;SDS011;27078;46.428;6.256;2023-07-29T06:31:02;5.05;;;3.20;;
41333;SDS011;27078;46.428;6.256;2023-07-29T06:33:28;5.47;;;3.47;;
41333;SDS011;27078;46.428;6.256;2023-07-29T06:35:53;6.40;;;3.15;;
41333;SDS011;27078;46.428;6.256;2023-07-29T06:38:18;4.47;;;3.50;;
41333;SDS011;27078;46.428;6.256;2023-07-29T06:40:46;9.57;;;4.00;;
41333;SDS011;27078;46.428;6.256;2023-07-29T06:43:15;4.65;;;3.25;;
41333;SDS011;27078;46.428;6.256;2023-07-29T06:45:41;5.35;;;3.40;;
41333;SDS011;27078;46.428;6.256;2023-07-29T06:48:06;4.45;;;3.30;;
41333;SDS011;27078;46.428;6.256;2023-07-29T06:50:32;4.03;;;3.08;;
41333;SDS011;27078;46.428;6.256;2023-07-29T06:52:57;5.80;;;3.28;;
41333;SDS011;27078;46.428;6.256;2023-07-29T06:55:22;4.88;;;3.28;;
41333;SDS011;27078;46.428;6.256;2023-07-29T06:57:47;4.50;;;3.25;;
41333;SDS011;27078;46.428;6.256;2023-07-29T07:00:13;4.22;;;2.97;;
41333;SDS011;27078;46.428;6.256;2023-07-29T07:02:38;4.78;;;3.03;;
41333;SDS011;27078;46.428;6.256;2023-07-29T07:05:04;5.85;;;3.50;;
41333;SDS011;27078;46.428;6.256;2023-07-29T07:07:30;6.35;;;3.25;;
41333;SDS011;27078;46.428;6.256;2023-07-29T07:09:55;6.28;;;3.00;;
41333;SDS011;27078;46.428;6.256;2023-07-29T07:12:21;3.90;;;2.88;;
41333;SDS011;27078;46.428;6.256;2023-07-29T07:14:47;4.80;;;2.92;;
41333;SDS011;27078;46.428;6.256;2023-07-29T07:17:15;4.10;;;3.10;;
41333;SDS011;27078;46.428;6.256;2023-07-29T07:19:40;4.93;;;3.00;;
41333;SDS011;27078;46.428;6.256;2023-07-29T07:22:06;4.70;;;2.88;;
41333;SDS011;27078;46.428;6.256;2023-07-29T07:24:31;4.00;;;2.90;;
41333;SDS011;27078;46.428;6.256;2023-07-29T07:26:56;3.88;;;2.95;;
41333;SDS011;27078;46.428;6.256;2023-07-29T07:29:21;4.13;;;2.85;;
41333;SDS011;27078;46.428;6.256;2023-07-29T07:31:51;4.75;;;2.80;;
41333;SDS011;27078;46.428;6.256;2023-07-29T07:34:17;7.20;;;2.53;;
41333;SDS011;27078;46.428;6.256;2023-07-29T07:36:43;5.00;;;2.70;;
41333;SDS011;27078;46.428;6.256;2023-07-29T07:39:09;6.20;;;3.35;;
41333;SDS011;27078;46.428;6.256;2023-07-29T07:41:34;3.78;;;2.80;;
41333;SDS011;27078;46.428;6.256;2023-07-29T07:44:00;4.47;;;3.00;;
41333;SDS011;27078;46.428;6.256;2023-07-29T07:46:25;3.97;;;2.67;;
41333;SDS011;27078;46.428;6.256;2023-07-29T07:48:50;4.30;;;2.85;;
41333;SDS011;27078;46.428;6.256;2023-07-29T07:51:16;4.03;;;2.65;;
41333;SDS011;27078;46.428;6.256;2023-07-29T07:53:41;4.03;;;2.80;;
41333;SDS011;27078;46.428;6.256;2023-07-29T07:56:07;3.45;;;2.53;;
41333;SDS011;27078;46.428;6.256;2023-07-29T07:58:32;4.18;;;2.80;;
41333;SDS011;27078;46.428;6.256;2023-07-29T08:01:05;3.47;;;2.58;;
41333;SDS011;27078;46.428;6.256;2023-07-29T08:03:32;3.90;;;2.70;;
41333;SDS011;27078;46.428;6.256;2023-07-29T08:05:58;4.38;;;2.78;;
41333;SDS011;27078;46.428;6.256;2023-07-29T08:08:23;4.63;;;2.70;;
41333;SDS011;27078;46.428;6.256;2023-07-29T08:10:49;3.95;;;2.45;;
41333;SDS011;27078;46.428;6.256;2023-07-29T08:13:15;5.47;;;2.90;;
41333;SDS011;27078;46.428;6.256;2023-07-29T08:15:40;4.32;;;2.67;;
41333;SDS011;27078;46.428;6.256;2023-07-29T08:18:06;2.95;;;2.50;;
41333;SDS011;27078;46.428;6.256;2023-07-29T08:20:31;5.75;;;2.70;;
41333;SDS011;27078;46.428;6.256;2023-07-29T08:22:57;4.20;;;2.75;;
41333;SDS011;27078;46.428;6.256;2023-07-29T08:25:23;5.63;;;2.55;;
41333;SDS011;27078;46.428;6.256;2023-07-29T08:27:48;4.15;;;2.70;;
41333;SDS011;27078;46.428;6.256;2023-07-29T08:30:13;5.30;;;2.80;;
41333;SDS011;27078;46.428;6.256;2023-07-29T08:32:40;7.00;;;2.63;;
41333;SDS011;27078;46.428;6.256;2023-07-29T08:35:06;6.22;;;3.03;;
41333;SDS011;27078;46.428;6.256;2023-07-29T08:37:32;7.75;;;3.17;;
41333;SDS011;27078;46.428;6.256;2023-07-29T08:39:57;4.25;;;3.17;;
41333;SDS011;27078;46.428;6.256;2023-07-29T08:42:23;5.57;;;3.28;;
41333;SDS011;27078;46.428;6.256;2023-07-29T08:44:49;5.82;;;3.22;;
41333;SDS011;27078;46.428;6.256;2023-07-29T08:47:15;4.85;;;2.78;;
41333;SDS011;27078;46.428;6.256;2023-07-29T08:49:41;4.25;;;2.78;;
41333;SDS011;27078;46.428;6.256;2023-07-29T08:52:07;6.47;;;3.35;;
41333;SDS011;27078;46.428;6.256;2023-07-29T08:54:34;4.88;;;3.10;;
41333;SDS011;27078;46.428;6.256;2023-07-29T08:57:00;6.88;;;3.28;;
41333;SDS011;27078;46.428;6.256;2023-07-29T08:59:25;5.55;;;3.08;;
41333;SDS011;27078;46.428;6.256;2023-07-29T09:01:53;5.32;;;2.90;;
41333;SDS011;27078;46.428;6.256;2023-07-29T09:04:21;3.67;;;2.80;;
41333;SDS011;27078;46.428;6.256;2023-07-29T09:06:48;4.82;;;2.80;;
41333;SDS011;27078;46.428;6.256;2023-07-29T09:09:15;3.78;;;2.70;;
41333;SDS011;27078;46.428;6.256;2023-07-29T09:11:41;3.58;;;2.80;;
41333;SDS011;27078;46.428;6.256;2023-07-29T09:14:06;3.75;;;2.70;;
41333;SDS011;27078;46.428;6.256;2023-07-29T09:16:32;4.78;;;2.75;;
41333;SDS011;27078;46.428;6.256;2023-07-29T09:19:00;3.65;;;2.63;;
41333;SDS011;27078;46.428;6.256;2023-07-29T09:21:27;4.45;;;2.70;;
41333;SDS011;27078;46.428;6.256;2023-07-29T09:23:54;4.32;;;2.70;;
41333;SDS011;27078;46.428;6.256;2023-07-29T09:26:23;3.67;;;2.60;;
41333;SDS011;27078;46.428;6.256;2023-07-29T09:28:51;4.10;;;2.78;;
41333;SDS011;27078;46.428;6.256;2023-07-29T09:31:19;3.92;;;2.65;;
41333;SDS011;27078;46.428;6.256;2023-07-29T09:33:46;3.25;;;2.42;;
41333;SDS011;27078;46.428;6.256;2023-07-29T09:36:11;3.53;;;2.63;;
41333;SDS011;27078;46.428;6.256;2023-07-29T09:38:37;5.35;;;2.88;;
41333;SDS011;27078;46.428;6.256;2023-07-29T09:41:02;4.45;;;2.58;;
41333;SDS011;27078;46.428;6.256;2023-07-29T09:43:32;4.35;;;2.70;;
41333;SDS011;27078;46.428;6.256;2023-07-29T09:46:02;4.20;;;2.40;;
41333;SDS011;27078;46.428;6.256;2023-07-29T09:48:32;5.80;;;2.83;;
41333;SDS011;27078;46.428;6.256;2023-07-29T09:51:13;3.10;;;2.22;;
41333;SDS011;27078;46.428;6.256;2023-07-29T09:53:44;3.97;;;2.42;;
41333;SDS011;27078;46.428;6.256;2023-07-29T09:56:11;4.13;;;2.60;;
41333;SDS011;27078;46.428;6.256;2023-07-29T09:58:37;5.07;;;2.75;;
41333;SDS011;27078;46.428;6.256;2023-07-29T10:01:06;5.85;;;2.72;;
41333;SDS011;27078;46.428;6.256;2023-07-29T10:03:33;7.68;;;2.78;;
41333;SDS011;27078;46.428;6.256;2023-07-29T10:06:01;5.03;;;2.75;;
41333;SDS011;27078;46.428;6.256;2023-07-29T10:08:28;5.57;;;2.90;;
41333;SDS011;27078;46.428;6.256;2023-07-29T10:10:56;4.72;;;3.03;;
41333;SDS011;27078;46.428;6.256;2023-07-29T10:13:25;4.22;;;2.75;;
41333;SDS011;27078;46.428;6.256;2023-07-29T10:15:51;4.10;;;2.83;;
41333;SDS011;27078;46.428;6.256;2023-07-29T10:18:18;6.00;;;3.03;;
41333;SDS011;27078;46.428;6.256;2023-07-29T10:20:44;5.03;;;2.80;;
41333;SDS011;27078;46.428;6.256;2023-07-29T10:23:11;3.80;;;2.80;;
41333;SDS011;27078;46.428;6.256;2023-07-29T10:25:46;4.72;;;2.63;;
41333;SDS011;27078;46.428;6.256;2023-07-29T10:28:14;3.63;;;2.90;;
41333;SDS011;27078;46.428;6.256;2023-07-29T10:30:41;4.50;;;2.75;;
41333;SDS011;27078;46.428;6.256;2023-07-29T10:33:06;5.28;;;3.30;;
41333;SDS011;27078;46.428;6.256;2023-07-29T10:35:32;3.53;;;2.67;;
41333;SDS011;27078;46.428;6.256;2023-07-29T10:37:58;4.15;;;2.90;;
41333;SDS011;27078;46.428;6.256;2023-07-29T10:40:24;4.15;;;2.83;;
41333;SDS011;27078;46.428;6.256;2023-07-29T10:43:03;5.47;;;3.25;;
41333;SDS011;27078;46.428;6.256;2023-07-29T10:45:38;4.50;;;3.00;;
41333;SDS011;27078;46.428;6.256;2023-07-29T10:48:11;5.38;;;3.28;;
41333;SDS011;27078;46.428;6.256;2023-07-29T10:50:38;4.40;;;3.03;;
41333;SDS011;27078;46.428;6.256;2023-07-29T10:53:03;5.85;;;3.38;;
41333;SDS011;27078;46.428;6.256;2023-07-29T10:55:29;5.10;;;3.20;;
41333;SDS011;27078;46.428;6.256;2023-07-29T10:58:04;4.40;;;3.40;;
41333;SDS011;27078;46.428;6.256;2023-07-29T11:00:41;5.70;;;3.20;;
41333;SDS011;27078;46.428;6.256;2023-07-29T11:03:08;5.13;;;3.50;;
41333;SDS011;27078;46.428;6.256;2023-07-29T11:05:46;5.00;;;3.13;;
41333;SDS011;27078;46.428;6.256;2023-07-29T11:11:02;4.32;;;3.28;;
41333;SDS011;27078;46.428;6.256;2023-07-29T11:13:29;6.38;;;3.20;;
41333;SDS011;27078;46.428;6.256;2023-07-29T11:15:56;4.95;;;3.33;;
41333;SDS011;27078;46.428;6.256;2023-07-29T11:18:25;4.80;;;3.40;;
41333;SDS011;27078;46.428;6.256;2023-07-29T11:20:56;4.93;;;3.30;;
41333;SDS011;27078;46.428;6.256;2023-07-29T11:26:14;4.85;;;3.40;;
41333;SDS011;27078;46.428;6.256;2023-07-29T11:28:39;5.13;;;3.95;;
41333;SDS011;27078;46.428;6.256;2023-07-29T11:31:05;4.57;;;3.38;;
41333;SDS011;27078;46.428;6.256;2023-07-29T11:33:31;6.28;;;3.70;;
41333;SDS011;27078;46.428;6.256;2023-07-29T11:35:56;5.72;;;3.85;;
41333;SDS011;27078;46.428;6.256;2023-07-29T11:38:21;5.25;;;3.38;;
41333;SDS011;27078;46.428;6.256;2023-07-29T11:40:58;5.30;;;3.90;;
41333;SDS011;27078;46.428;6.256;2023-07-29T11:43:25;5.32;;;3.90;;
41333;SDS011;27078;46.428;6.256;2023-07-29T11:45:52;5.20;;;3.88;;
41333;SDS011;27078;46.428;6.256;2023-07-29T11:48:18;5.25;;;3.78;;
41333;SDS011;27078;46.428;6.256;2023-07-29T11:50:50;5.60;;;4.10;;
41333;SDS011;27078;46.428;6.256;2023-07-29T11:53:16;6.93;;;4.20;;
41333;SDS011;27078;46.428;6.256;2023-07-29T11:55:41;6.25;;;3.85;;
41333;SDS011;27078;46.428;6.256;2023-07-29T11:58:07;5.65;;;4.00;;
41333;SDS011;27078;46.428;6.256;2023-07-29T12:00:32;5.60;;;4.00;;
41333;SDS011;27078;46.428;6.256;2023-07-29T12:02:58;7.57;;;4.55;;
41333;SDS011;27078;46.428;6.256;2023-07-29T12:05:25;5.68;;;3.78;;
41333;SDS011;27078;46.428;6.256;2023-07-29T12:07:50;6.45;;;3.90;;
41333;SDS011;27078;46.428;6.256;2023-07-29T12:10:15;6.13;;;3.83;;
41333;SDS011;27078;46.428;6.256;2023-07-29T12:12:45;5.32;;;4.28;;
41333;SDS011;27078;46.428;6.256;2023-07-29T12:15:12;5.85;;;4.45;;
41333;SDS011;27078;46.428;6.256;2023-07-29T12:17:39;7.75;;;4.03;;
41333;SDS011;27078;46.428;6.256;2023-07-29T12:20:07;6.32;;;4.45;;
41333;SDS011;27078;46.428;6.256;2023-07-29T12:22:33;5.50;;;4.25;;
41333;SDS011;27078;46.428;6.256;2023-07-29T12:24:59;5.53;;;4.00;;
41333;SDS011;27078;46.428;6.256;2023-07-29T12:27:24;5.70;;;3.70;;
41333;SDS011;27078;46.428;6.256;2023-07-29T12:29:51;5.68;;;3.75;;
41333;SDS011;27078;46.428;6.256;2023-07-29T12:32:18;6.20;;;4.05;;
41333;SDS011;27078;46.428;6.256;2023-07-29T12:34:43;5.03;;;4.10;;
41333;SDS011;27078;46.428;6.256;2023-07-29T12:37:09;5.32;;;4.15;;
41333;SDS011;27078;46.428;6.256;2023-07-29T12:39:39;7.20;;;4.05;;
41333;SDS011;27078;46.428;6.256;2023-07-29T12:42:06;5.53;;;4.07;;
41333;SDS011;27078;46.428;6.256;2023-07-29T12:44:32;6.53;;;4.07;;
41333;SDS011;27078;46.428;6.256;2023-07-29T12:47:02;5.85;;;3.95;;
41333;SDS011;27078;46.428;6.256;2023-07-29T12:49:30;5.57;;;3.80;;
41333;SDS011;27078;46.428;6.256;2023-07-29T12:51:56;6.07;;;3.88;;
41333;SDS011;27078;46.428;6.256;2023-07-29T12:54:21;5.07;;;3.58;;
41333;SDS011;27078;46.428;6.256;2023-07-29T12:56:47;7.22;;;3.88;;
41333;SDS011;27078;46.428;6.256;2023-07-29T12:59:12;5.65;;;3.65;;
41333;SDS011;27078;46.428;6.256;2023-07-29T13:01:37;5.75;;;3.97;;
41333;SDS011;27078;46.428;6.256;2023-07-29T13:04:02;6.03;;;4.18;;
41333;SDS011;27078;46.428;6.256;2023-07-29T13:06:28;6.72;;;4.18;;
41333;SDS011;27078;46.428;6.256;2023-07-29T13:08:53;8.55;;;4.30;;
41333;SDS011;27078;46.428;6.256;2023-07-29T13:11:19;8.00;;;3.80;;
41333;SDS011;27078;46.428;6.256;2023-07-29T13:13:44;5.85;;;3.67;;
41333;SDS011;27078;46.428;6.256;2023-07-29T13:16:10;6.32;;;3.72;;
41333;SDS011;27078;46.428;6.256;2023-07-29T13:18:36;6.35;;;3.33;;
41333;SDS011;27078;46.428;6.256;2023-07-29T13:21:01;6.50;;;4.00;;
41333;SDS011;27078;46.428;6.256;2023-07-29T13:23:26;5.22;;;3.33;;
41333;SDS011;27078;46.428;6.256;2023-07-29T13:25:53;5.43;;;3.58;;
41333;SDS011;27078;46.428;6.256;2023-07-29T13:28:18;5.75;;;3.75;;
41333;SDS011;27078;46.428;6.256;2023-07-29T13:30:44;5.25;;;3.17;;
41333;SDS011;27078;46.428;6.256;2023-07-29T13:33:10;7.55;;;3.65;;
41333;SDS011;27078;46.428;6.256;2023-07-29T13:35:35;6.40;;;4.40;;
41333;SDS011;27078;46.428;6.256;2023-07-29T13:38:01;5.78;;;4.05;;
41333;SDS011;27078;46.428;6.256;2023-07-29T13:40:26;5.90;;;3.90;;
41333;SDS011;27078;46.428;6.256;2023-07-29T13:42:51;5.72;;;3.53;;
41333;SDS011;27078;46.428;6.256;2023-07-29T13:45:17;7.03;;;4.00;;
41333;SDS011;27078;46.428;6.256;2023-07-29T13:47:43;5.47;;;3.70;;
41333;SDS011;27078;46.428;6.256;2023-07-29T13:50:08;5.72;;;3.90;;
41333;SDS011;27078;46.428;6.256;2023-07-29T13:52:34;5.22;;;3.75;;
41333;SDS011;27078;46.428;6.256;2023-07-29T13:54:59;5.43;;;3.90;;
41333;SDS011;27078;46.428;6.256;2023-07-29T13:57:24;6.10;;;4.60;;
41333;SDS011;27078;46.428;6.256;2023-07-29T13:59:50;5.85;;;4.00;;
41333;SDS011;27078;46.428;6.256;2023-07-29T14:02:15;4.80;;;3.45;;
41333;SDS011;27078;46.428;6.256;2023-07-29T14:04:40;5.55;;;3.70;;
41333;SDS011;27078;46.428;6.256;2023-07-29T14:07:06;4.68;;;3.50;;
41333;SDS011;27078;46.428;6.256;2023-07-29T14:09:31;6.50;;;4.00;;
41333;SDS011;27078;46.428;6.256;2023-07-29T14:11:57;4.80;;;3.30;;
41333;SDS011;27078;46.428;6.256;2023-07-29T14:14:22;4.75;;;3.22;;
41333;SDS011;27078;46.428;6.256;2023-07-29T14:16:48;5.47;;;3.50;;
41333;SDS011;27078;46.428;6.256;2023-07-29T14:19:14;4.55;;;3.20;;
41333;SDS011;27078;46.428;6.256;2023-07-29T14:21:39;4.10;;;2.92;;
41333;SDS011;27078;46.428;6.256;2023-07-29T14:24:05;4.00;;;3.35;;
41333;SDS011;27078;46.428;6.256;2023-07-29T14:26:30;5.10;;;3.88;;
41333;SDS011;27078;46.428;6.256;2023-07-29T14:28:56;5.32;;;3.08;;
41333;SDS011;27078;46.428;6.256;2023-07-29T14:31:21;3.63;;;3.00;;
41333;SDS011;27078;46.428;6.256;2023-07-29T14:33:47;3.83;;;3.10;;
41333;SDS011;27078;46.428;6.256;2023-07-29T14:36:14;6.75;;;3.65;;
41333;SDS011;27078;46.428;6.256;2023-07-29T14:38:39;4.45;;;3.08;;
41333;SDS011;27078;46.428;6.256;2023-07-29T14:41:04;6.05;;;3.50;;
41333;SDS011;27078;46.428;6.256;2023-07-29T14:43:30;3.88;;;2.95;;
41333;SDS011;27078;46.428;6.256;2023-07-29T14:45:55;5.43;;;2.92;;
41333;SDS011;27078;46.428;6.256;2023-07-29T14:48:21;5.22;;;2.83;;
41333;SDS011;27078;46.428;6.256;2023-07-29T14:50:46;4.72;;;2.83;;
41333;SDS011;27078;46.428;6.256;2023-07-29T14:53:11;4.43;;;2.60;;